San Antonio, TX (78201)

6:23 AM CDT on July 26, 2016 (GMT -0500)
Monticello | | Change Station

Elev 751 ft 29.47 °N, 98.53 °W | Updated 1 minute ago

Overcast
Overcast
75.2 °F
Feels Like 75 °F
N
0.0
Wind Variable Wind from South

Today
High -- | Low -- °F
--% Chance of Precip.
Yesterday
High -- | Low -- °F
Precip. -- in
Pressure 29.88 in
Visibility 10.0 miles
Clouds Few 1700 ft
Mostly Cloudy 13000 ft
Overcast 25000 ft
Heat Index 75 °F
Dew Point 71 °F
Humidity 88%
Rainfall 0.03 in
Snow Depth Not available.
6:50 AM 8:30 PM
Waning Gibbous, 55% visible
METAR KSAT 261051Z COR 02003KT 10SM FEW017 BKN130 OVC250 24/22 A2993 RMK AO2 SLP116 T02390222 LIMITED WEATHER WATCH UFN DUE TO OFFICE EVACUATION
Pressure 29.88 in
Visibility 10.0 miles
Clouds Few 1700 ft
Mostly Cloudy 13000 ft
Overcast 25000 ft
Heat Index 75 °F
Dew Point 71 °F
Humidity 88%
Rainfall 0.03 in
Snow Depth Not available.
6:50 AM 8:30 PM
Waning Gibbous, 55% visible
METAR KSAT 261051Z COR 02003KT 10SM FEW017 BKN130 OVC250 24/22 A2993 RMK AO2 SLP116 T02390222 LIMITED WEATHER WATCH UFN DUE TO OFFICE EVACUATION

10-Day Weather Forecast

Almanac

Astronomy

Jul. 26, 2016 Rise Set
Actual Time
Civil Twilight
Nautical Twilight
Astronomical Twilight
Moon
Length of Visible Light
Length of Day
Tomorrow will be .
, % of the Moon is Illuminated

Today's Extremes

State Highs State Lows

Community

WunderPhotos

Upload Photos

1,927,575 photos uploaded!

WunderBlog® & News

Nearby

Air Quality

  Air Quality AQ Index Pollutant
Not available.

Snow Depth

Station Depth Elevation

Earthquake Activity

City Distance Mag. Time & Date
Minimum magnitude displayed is 2.5.

Coastal Water Temperatures

Place Temperature

Stations

Nearby Weather Stations

Station Location Temp. Windchill Dew Point Humidity Wind Precip. Elev Updated Type
                   

Watches & Warnings

There are currently no watches in effect.